• Join FlightAware (Why Join?)
  • Login
  • US Flag 
12:59PM EDT


 

Airport Tracker/Info


-or-


 

Live Flight TrackerFlight Track Log ✈ CHH7123 ✈ 05-Jul-2013 ✈ ZBAA / PEK - ZYMD / MDG

Flight Track Log - Related Links

Times and Time Zones

All times are in EDT time to prevent confusion due to time zone crossing. See the CHH7123 flight status page for this flight to view local times or setup timezone preferences in your user account.

Time Position Orientation Groundspeed Altitude Reporting Facility
EDT Latitude Longitude Course Direction KTS MPH feet Rate Location/Type
08:46AM 41.5470 120.2406 61° Northeast  Level Estimated
08:47AM 41.6056 120.3964 63° Northeast  Level Estimated
08:48AM 41.6640 120.5526 63° Northeast  Level Estimated
08:49AM 41.7221 120.7090 63° Northeast  Level Estimated
08:50AM 41.7800 120.8657 64° Northeast  Level Estimated
08:51AM 41.8378 121.0227 64° Northeast  Level Estimated
08:52AM 41.8953 121.1799 64° Northeast  Level Estimated
08:53AM 41.9526 121.3375 64° Northeast  Level Estimated
08:54AM 42.0097 121.4953 64° Northeast  Level Estimated
08:55AM 42.0665 121.6534 64° Northeast  Level Estimated
08:56AM 42.1232 121.8118 64° Northeast  Level Estimated
08:57AM 42.1796 121.9705 64° Northeast  Level Estimated
08:58AM 42.2358 122.1295 64° Northeast  Level Estimated
08:59AM 42.2918 122.2887 65° Northeast  Level Estimated
09:00AM 42.3476 122.4483 65° Northeast  Level Estimated
09:01AM 42.4031 122.6081 65° Northeast  Level Estimated
09:02AM 42.4584 122.7682 65° Northeast  Level Estimated
09:03AM 42.5135 122.9286 65° Northeast  Level Estimated
09:04AM 42.5684 123.0892 65° Northeast  Level Estimated
09:05AM 42.6231 123.2502 65° Northeast  Level Estimated
09:06AM 42.6775 123.4114 65° Northeast  Level Estimated
09:07AM 42.7317 123.5729 65° Northeast  Level Estimated
09:08AM 42.7857 123.7347 66° East  Level Estimated
09:09AM 42.8394 123.8968 66° East  Level Estimated
09:10AM 42.8929 124.0591 66° East  Level Estimated
09:11AM 42.9462 124.2217 66° East  Level Estimated
09:12AM 42.9993 124.3847 66° East  Level Estimated
09:13AM 43.0521 124.5479 66° East  Level Estimated
09:14AM 43.1047 124.7113 66° East  Level Estimated
09:15AM 43.1571 124.8751 66° East  Level Estimated
09:16AM 43.2092 125.0391 66° East  Level Estimated
09:17AM 43.2611 125.2035 67° East  Level Estimated
09:18AM 43.3127 125.3681 67° East  Level Estimated
09:19AM 43.3641 125.5330 67° East  Level Estimated
09:20AM 43.4153 125.6981 67° East  Level Estimated
09:21AM 43.4663 125.8635 67° East  Level Estimated
09:22AM 43.5169 126.0293 67° East  Level Estimated
09:23AM 43.5674 126.1953 67° East  Level Estimated
09:24AM 43.6176 126.3615 67° East  Level Estimated
09:25AM 43.6676 126.5281 67° East  Level Estimated
09:26AM 43.7174 126.6949 68° East  Level Estimated
09:27AM 43.7668 126.8620 68° East  Level Estimated
09:28AM 43.8161 127.0294 68° East  Level Estimated
09:29AM 43.8651 127.1970 68° East  Level Estimated
09:30AM 43.9139 127.3650 68° East  Level Estimated
09:31AM 43.9624 127.5331 68° East  Level Estimated
09:32AM 44.0107 127.7016 68° East  Level Estimated
09:33AM 44.0587 127.8704 68° East  Level Estimated
09:34AM 44.1064 128.0394 68° East  Level Estimated
09:35AM 44.1540 128.2087 69° East  Level Estimated
09:36AM 44.2012 128.3783 69° East  Level Estimated
09:37AM 44.2483 128.5481 69° East  Level Estimated
09:38AM 44.2950 128.7182 69° East  Level Estimated
09:39AM 44.3415 128.8886 69° East  Level Estimated
09:40AM 44.3878 129.0592 69° East  Level Estimated
09:41AM 44.4338 129.2302 69° East  Level Estimated
09:42AM 44.4796 129.4014 69° East  Level Estimated
09:43AM 44.5241 129.5690 70° East  Level Estimated
09:44AM 44.5241 129.5690 35° Northeast  Level Estimated
09:45AM 44.5241 129.5690 35° Northeast  Level Estimated
09:46AM 44.5241 129.5690 35° Northeast  Level Estimated
09:47AM 44.5241 129.5690 35° Northeast  Level Estimated
09:48AM 44.5241 129.5690 35° Northeast  Level Estimated
09:49AM 44.5241 129.5690 35° Northeast  Level Estimated
09:50AM 44.5241 129.5690 35° Northeast  Level Estimated
09:51AM 44.5241 129.5690 35° Northeast  Level Estimated
09:52AM 44.5241 129.5690 35° Northeast  Level Estimated
09:53AM 44.5241 129.5690 35° Northeast  Level Estimated
09:54AM 44.5241 129.5690 35° Northeast  Level Estimated
09:55AM 44.5241 129.5690 35° Northeast  Level Estimated
09:56AM 44.5241 129.5690 35° Northeast  Level Estimated
09:57AM 44.5241 129.5690 35° Northeast  Level Estimated
09:58AM 44.5241 129.5690 35° Northeast  Level Estimated
09:59AM 44.5241 129.5690 35° Northeast  Level Estimated